Time;durP1;ratioP1;P1;durP2;ratioP2;P2;SDS_P1;SDS_P2;PMS_P1;PMS_P2;Temp;Humidity;BMP_temperature;BMP_pressure;BME280_temperature;BME280_humidity;BME280_pressure;Samples;Min_cycle;Max_cycle;Signal;HPM_P1;HPM_P2
2021/01/13 00:00:06;;;;;;;29.45;18.23;;;;;;;;;;5047919;28;20203;-65
2021/01/13 00:02:32;;;;;;;30.35;18.38;;;;;;;;;;5049978;28;20208;-64
2021/01/13 00:04:59;;;;;;;28.48;17.30;;;;;;;;;;5048836;28;20196;-61
2021/01/13 00:07:25;;;;;;;28.67;18.10;;;;;;;;;;5049794;28;20340;-67
2021/01/13 00:09:51;;;;;;;32.78;18.35;;;;;;;;;;5049040;28;20186;-62
2021/01/13 00:12:18;;;;;;;27.48;16.75;;;;;;;;;;5049794;28;20594;-67
2021/01/13 00:14:44;;;;;;;30.83;17.42;;;;;;;;;;5048959;28;20213;-66
2021/01/13 00:17:10;;;;;;;29.98;16.98;;;;;;;;;;5049087;28;20200;-63
2021/01/13 00:19:37;;;;;;;28.00;17.25;;;;;;;;;;5048885;28;20744;-65
2021/01/13 00:22:04;;;;;;;29.13;17.40;;;;;;;;;;5049387;28;20271;-64
2021/01/13 00:24:30;;;;;;;28.13;17.05;;;;;;;;;;5049219;28;20185;-66
2021/01/13 00:26:57;;;;;;;26.40;16.27;;;;;;;;;;5049261;28;20238;-67
2021/01/13 00:29:23;;;;;;;25.20;15.85;;;;;;;;;;5049303;28;20205;-64
2021/01/13 00:31:49;;;;;;;25.92;16.77;;;;;;;;;;5049860;28;20200;-67
2021/01/13 00:34:16;;;;;;;24.67;15.40;;;;;;;;;;5048927;28;20251;-66
2021/01/13 00:36:43;;;;;;;26.88;14.98;;;;;;;;;;5048373;28;20240;-67
2021/01/13 00:39:10;;;;;;;24.33;14.25;;;;;;;;;;5048696;28;20853;-67
2021/01/13 00:41:37;;;;;;;22.10;14.43;;;;;;;;;;5050335;28;20300;-67
2021/01/13 00:44:04;;;;;;;21.90;14.00;;;;;;;;;;5052792;28;20196;-69
2021/01/13 00:46:40;;;;;;;23.42;14.38;;;;;;;;;;5052888;28;20215;-62
2021/01/13 00:49:08;;;;;;;23.13;14.40;;;;;;;;;;5052458;28;20204;-65
2021/01/13 00:51:35;;;;;;;21.13;13.65;;;;;;;;;;5052689;28;20180;-66
2021/01/13 00:54:01;;;;;;;24.38;14.93;;;;;;;;;;5052877;28;20196;-66
2021/01/13 00:56:28;;;;;;;23.13;14.77;;;;;;;;;;5052436;28;20192;-64
2021/01/13 00:58:55;;;;;;;24.15;15.23;;;;;;;;;;5052796;28;20303;-63
2021/01/13 01:01:24;;;;;;;23.60;14.73;;;;;;;;;;5052275;28;20199;-62
2021/01/13 01:03:50;;;;;;;24.60;14.25;;;;;;;;;;5052642;28;20193;-65
2021/01/13 01:06:16;;;;;;;25.30;15.52;;;;;;;;;;5052315;28;20311;-67
2021/01/13 01:08:44;;;;;;;22.48;14.43;;;;;;;;;;5056670;28;20192;-64
2021/01/13 01:11:11;;;;;;;24.42;14.80;;;;;;;;;;5052229;28;20231;-69
2021/01/13 01:13:37;;;;;;;24.20;15.18;;;;;;;;;;5052530;28;20204;-67
2021/01/13 01:16:03;;;;;;;26.65;15.82;;;;;;;;;;5052009;28;20216;-65
2021/01/13 01:18:30;;;;;;;24.80;15.65;;;;;;;;;;5052402;28;20292;-66
2021/01/13 01:20:56;;;;;;;24.17;14.60;;;;;;;;;;5052083;28;20350;-64
2021/01/13 01:23:22;;;;;;;24.33;14.52;;;;;;;;;;5052517;28;20235;-67
2021/01/13 01:25:49;;;;;;;26.52;15.70;;;;;;;;;;5051899;28;20215;-63
2021/01/13 01:28:15;;;;;;;23.45;14.98;;;;;;;;;;5052142;28;20299;-66
2021/01/13 01:30:41;;;;;;;24.60;14.57;;;;;;;;;;5051456;28;20193;-67
2021/01/13 01:33:09;;;;;;;25.65;15.82;;;;;;;;;;5051882;28;20246;-63
2021/01/13 01:35:35;;;;;;;24.92;14.70;;;;;;;;;;5051568;28;20239;-69
2021/01/13 01:38:02;;;;;;;23.55;14.02;;;;;;;;;;5052421;28;20279;-67
2021/01/13 01:40:28;;;;;;;24.70;14.73;;;;;;;;;;5051526;28;20200;-62
2021/01/13 01:42:55;;;;;;;25.88;15.15;;;;;;;;;;5052096;28;20200;-71
2021/01/13 01:45:22;;;;;;;22.35;13.55;;;;;;;;;;5052001;28;20228;-63
2021/01/13 01:47:58;;;;;;;21.67;13.90;;;;;;;;;;5052344;28;20551;-65
2021/01/13 01:50:27;;;;;;;21.08;12.20;;;;;;;;;;5051480;28;20181;-65
2021/01/13 01:52:59;;;;;;;23.23;13.68;;;;;;;;;;5051458;28;20683;-65
2021/01/13 01:55:27;;;;;;;25.33;14.65;;;;;;;;;;5083080;28;20267;-68
2021/01/13 01:57:57;;;;;;;23.52;14.40;;;;;;;;;;5051986;28;20219;-67
2021/01/13 02:00:30;;;;;;;24.10;14.68;;;;;;;;;;5051512;28;20208;-62
2021/01/13 02:03:05;;;;;;;26.55;15.05;;;;;;;;;;5051545;28;20335;-65
2021/01/13 02:05:31;;;;;;;24.05;14.70;;;;;;;;;;5051049;28;20199;-65
2021/01/13 02:08:00;;;;;;;23.85;14.35;;;;;;;;;;5052138;28;20211;-66
2021/01/13 02:10:26;;;;;;;23.25;14.07;;;;;;;;;;5050729;28;20251;-66
2021/01/13 02:12:52;;;;;;;24.38;14.48;;;;;;;;;;5051397;28;20279;-65
2021/01/13 02:15:19;;;;;;;24.65;14.20;;;;;;;;;;5050792;28;20673;-65
2021/01/13 02:17:53;;;;;;;23.70;14.48;;;;;;;;;;5051349;28;20216;-64
2021/01/13 02:20:22;;;;;;;25.58;15.30;;;;;;;;;;5050782;28;20275;-64
2021/01/13 02:22:59;;;;;;;22.98;14.75;;;;;;;;;;5051553;28;20744;-66
2021/01/13 02:25:44;;;;;;;28.02;16.20;;;;;;;;;;5050740;28;20243;-65
2021/01/13 02:28:12;;;;;;;27.13;16.33;;;;;;;;;;5051516;28;20204;-66
2021/01/13 02:30:41;;;;;;;28.33;16.75;;;;;;;;;;5050930;28;20254;-66
2021/01/13 02:33:31;;;;;;;26.67;16.52;;;;;;;;;;5050899;28;20208;-67
2021/01/13 02:36:16;;;;;;;25.77;15.05;;;;;;;;;;5047023;28;20295;-66
2021/01/13 02:38:44;;;;;;;25.50;15.18;;;;;;;;;;5053085;28;20235;-64
2021/01/13 02:41:17;;;;;;;28.92;15.55;;;;;;;;;;5056281;28;20311;-64
2021/01/13 02:43:53;;;;;;;25.83;14.60;;;;;;;;;;5050667;28;20686;-64
2021/01/13 02:46:37;;;;;;;26.42;14.60;;;;;;;;;;5050513;28;20242;-64
2021/01/13 02:49:07;;;;;;;25.85;16.10;;;;;;;;;;5050562;28;20280;-63
2021/01/13 02:51:35;;;;;;;24.50;14.70;;;;;;;;;;5050589;28;20210;-65
2021/01/13 02:54:21;;;;;;;25.77;14.82;;;;;;;;;;5052695;28;20694;-67
2021/01/13 02:56:51;;;;;;;24.63;14.27;;;;;;;;;;5049771;28;20204;-64
2021/01/13 02:59:18;;;;;;;25.40;15.25;;;;;;;;;;5053391;28;20202;-66
2021/01/13 03:01:45;;;;;;;26.42;15.05;;;;;;;;;;5050784;28;20196;-68
2021/01/13 03:04:12;;;;;;;26.55;15.38;;;;;;;;;;5049940;28;20208;-67
2021/01/13 03:06:40;;;;;;;26.13;15.15;;;;;;;;;;5049592;28;20200;-64
2021/01/13 03:09:07;;;;;;;25.83;15.65;;;;;;;;;;5050148;28;20197;-66
2021/01/13 03:11:34;;;;;;;26.40;15.63;;;;;;;;;;5050463;28;20725;-64
2021/01/13 03:14:14;;;;;;;28.58;16.40;;;;;;;;;;5050482;28;20196;-62
2021/01/13 03:16:44;;;;;;;28.08;16.73;;;;;;;;;;5050122;28;20666;-65
2021/01/13 03:19:16;;;;;;;29.77;17.63;;;;;;;;;;5050252;28;20223;-66
2021/01/13 03:21:45;;;;;;;28.83;16.55;;;;;;;;;;5050249;28;20228;-66
2021/01/13 03:24:14;;;;;;;26.48;15.73;;;;;;;;;;5049910;28;20200;-65
2021/01/13 03:26:44;;;;;;;29.23;17.40;;;;;;;;;;5050144;28;20764;-62
2021/01/13 03:29:13;;;;;;;29.33;17.15;;;;;;;;;;5049587;28;20243;-67
2021/01/13 03:32:09;;;;;;;29.63;17.52;;;;;;;;;;5050026;28;20200;-63
2021/01/13 03:34:51;;;;;;;29.23;16.30;;;;;;;;;;5044443;28;20311;-66
2021/01/13 03:37:25;;;;;;;31.38;17.58;;;;;;;;;;5048599;28;20185;-66
2021/01/13 03:39:52;;;;;;;32.42;17.63;;;;;;;;;;5049425;28;20718;-65
2021/01/13 03:42:21;;;;;;;32.60;18.45;;;;;;;;;;5050072;28;20188;-65
2021/01/13 03:44:47;;;;;;;33.30;19.55;;;;;;;;;;5049152;28;20240;-64
2021/01/13 03:47:19;;;;;;;36.05;18.67;;;;;;;;;;5049887;28;20651;-63
2021/01/13 03:50:05;;;;;;;35.60;20.17;;;;;;;;;;5049318;28;20262;-62
2021/01/13 03:52:37;;;;;;;36.00;20.13;;;;;;;;;;5049936;28;20630;-68
2021/01/13 03:55:04;;;;;;;30.70;17.92;;;;;;;;;;5049068;28;20299;-63
2021/01/13 03:57:53;;;;;;;35.50;19.70;;;;;;;;;;5049632;28;20212;-66
2021/01/13 04:00:21;;;;;;;31.75;17.42;;;;;;;;;;5048987;28;20288;-68
2021/01/13 04:03:01;;;;;;;34.00;19.83;;;;;;;;;;5048149;28;20212;-61
2021/01/13 04:05:29;;;;;;;34.20;19.58;;;;;;;;;;5049598;28;20200;-68
2021/01/13 04:07:56;;;;;;;32.90;19.08;;;;;;;;;;5049344;28;20199;-65
2021/01/13 04:10:23;;;;;;;33.88;19.60;;;;;;;;;;5051799;28;20203;-65
2021/01/13 04:12:56;;;;;;;32.20;18.17;;;;;;;;;;5051674;28;20222;-64
2021/01/13 04:15:43;;;;;;;33.67;18.90;;;;;;;;;;5049386;28;20326;-63
2021/01/13 04:18:10;;;;;;;33.40;19.52;;;;;;;;;;5052995;28;20208;-65
2021/01/13 04:20:37;;;;;;;31.65;19.20;;;;;;;;;;5053381;28;20621;-66
2021/01/13 04:23:04;;;;;;;35.88;19.95;;;;;;;;;;5054173;28;20230;-63
2021/01/13 04:25:30;;;;;;;33.10;18.80;;;;;;;;;;5052808;28;20584;-65
2021/01/13 04:27:57;;;;;;;32.97;18.30;;;;;;;;;;5053430;28;21020;-65
2021/01/13 04:30:25;;;;;;;29.10;16.67;;;;;;;;;;5052966;28;20188;-67
2021/01/13 04:32:55;;;;;;;28.70;17.38;;;;;;;;;;5053214;28;20567;-63
2021/01/13 04:35:22;;;;;;;34.08;18.77;;;;;;;;;;5052832;28;20250;-65
2021/01/13 04:37:51;;;;;;;31.67;16.90;;;;;;;;;;5053016;28;20205;-65
2021/01/13 04:40:23;;;;;;;28.45;16.55;;;;;;;;;;5053150;28;20210;-67
2021/01/13 04:43:09;;;;;;;29.42;17.33;;;;;;;;;;5085258;28;20623;-65
2021/01/13 04:45:36;;;;;;;27.92;15.90;;;;;;;;;;5052525;28;20299;-67
2021/01/13 04:48:07;;;;;;;29.23;16.75;;;;;;;;;;5053324;28;20208;-68
2021/01/13 04:50:34;;;;;;;28.20;16.83;;;;;;;;;;5052368;28;20196;-68
2021/01/13 04:53:06;;;;;;;28.90;16.95;;;;;;;;;;5052952;28;20184;-64
2021/01/13 04:55:42;;;;;;;30.50;17.15;;;;;;;;;;5052485;28;20248;-64
2021/01/13 04:58:20;;;;;;;27.67;16.48;;;;;;;;;;5052648;28;20690;-68
2021/01/13 05:01:06;;;;;;;29.83;17.73;;;;;;;;;;5052185;28;20262;-63
2021/01/13 05:03:51;;;;;;;28.67;17.33;;;;;;;;;;5052822;28;20211;-67
2021/01/13 05:06:17;;;;;;;30.10;18.33;;;;;;;;;;5051836;28;20185;-68
2021/01/13 05:08:51;;;;;;;32.65;18.08;;;;;;;;;;5052362;28;20288;-66
2021/01/13 05:11:17;;;;;;;32.53;18.73;;;;;;;;;;5052111;28;20651;-64
2021/01/13 05:13:46;;;;;;;30.50;17.70;;;;;;;;;;5032711;28;20651;-65
2021/01/13 05:16:13;;;;;;;30.48;17.58;;;;;;;;;;5031543;28;20225;-67
2021/01/13 05:18:52;;;;;;;30.42;17.45;;;;;;;;;;5031931;28;20292;-67
2021/01/13 05:21:22;;;;;;;30.13;17.25;;;;;;;;;;5031732;28;20259;-67
2021/01/13 05:23:50;;;;;;;32.65;18.90;;;;;;;;;;5031800;28;20674;-67
2021/01/13 05:26:17;;;;;;;30.98;17.55;;;;;;;;;;5031471;28;20235;-67
2021/01/13 05:29:02;;;;;;;31.77;18.02;;;;;;;;;;5030187;28;20283;-65
2021/01/13 05:31:32;;;;;;;32.30;18.23;;;;;;;;;;5031946;28;20224;-63
2021/01/13 05:33:59;;;;;;;34.65;19.23;;;;;;;;;;5031926;28;20197;-68
2021/01/13 05:36:28;;;;;;;29.67;17.20;;;;;;;;;;5031175;28;20814;-69
2021/01/13 05:39:03;;;;;;;31.17;17.58;;;;;;;;;;5031609;28;20193;-67
2021/01/13 05:41:29;;;;;;;29.13;16.55;;;;;;;;;;5033276;28;20195;-68
2021/01/13 05:43:56;;;;;;;30.63;18.17;;;;;;;;;;5036636;28;21035;-72
2021/01/13 05:46:22;;;;;;;28.55;17.48;;;;;;;;;;5031148;28;20245;-68
2021/01/13 05:48:50;;;;;;;30.25;18.25;;;;;;;;;;5031671;28;20185;-70
2021/01/13 05:51:32;;;;;;;30.50;17.42;;;;;;;;;;5029434;28;20186;-65
2021/01/13 05:53:58;;;;;;;30.05;18.05;;;;;;;;;;5031538;28;20189;-69
2021/01/13 05:56:24;;;;;;;31.92;18.92;;;;;;;;;;5030809;28;20225;-69
2021/01/13 05:59:00;;;;;;;31.95;18.25;;;;;;;;;;5031212;28;20271;-68
2021/01/13 06:01:32;;;;;;;30.48;18.20;;;;;;;;;;5031371;28;20295;-66
2021/01/13 06:04:02;;;;;;;32.75;19.38;;;;;;;;;;5031353;28;20276;-65
2021/01/13 06:06:33;;;;;;;32.13;19.42;;;;;;;;;;5031292;28;20202;-65
2021/01/13 06:09:01;;;;;;;118.30;75.25;;;;;;;;;;5030795;28;20194;-65
2021/01/13 06:11:42;;;;;;;57.33;37.70;;;;;;;;;;5030879;28;20193;-68
2021/01/13 06:14:09;;;;;;;35.38;20.27;;;;;;;;;;5030909;28;20659;-70
2021/01/13 06:16:35;;;;;;;31.88;18.48;;;;;;;;;;5031044;28;20233;-68
2021/01/13 06:19:02;;;;;;;27.20;16.05;;;;;;;;;;5030780;28;20185;-69
2021/01/13 06:21:28;;;;;;;32.33;17.33;;;;;;;;;;5031350;28;20227;-65
2021/01/13 06:23:55;;;;;;;35.05;17.92;;;;;;;;;;5031271;28;20198;-73
2021/01/13 06:26:21;;;;;;;32.15;18.40;;;;;;;;;;5030629;28;20297;-65
2021/01/13 06:29:06;;;;;;;27.20;16.23;;;;;;;;;;5030523;28;20185;-68
2021/01/13 06:31:43;;;;;;;56.33;32.95;;;;;;;;;;5031277;28;20209;-68
2021/01/13 06:34:19;;;;;;;46.45;27.55;;;;;;;;;;5030277;28;20197;-69
2021/01/13 06:37:04;;;;;;;29.65;16.55;;;;;;;;;;5030845;28;20246;-67
2021/01/13 06:39:33;;;;;;;29.60;16.65;;;;;;;;;;5029883;28;20679;-64
2021/01/13 06:42:00;;;;;;;27.63;15.02;;;;;;;;;;5030523;28;20204;-63
2021/01/13 06:44:40;;;;;;;25.05;14.95;;;;;;;;;;5030320;28;20204;-65
2021/01/13 06:47:07;;;;;;;25.25;15.48;;;;;;;;;;5030938;28;20205;-66
2021/01/13 06:49:34;;;;;;;27.50;15.68;;;;;;;;;;5029827;28;20289;-67
2021/01/13 06:52:00;;;;;;;25.42;15.00;;;;;;;;;;5029846;28;20207;-69
2021/01/13 06:54:27;;;;;;;27.20;16.15;;;;;;;;;;5028165;28;20188;-64
2021/01/13 06:56:57;;;;;;;30.60;16.77;;;;;;;;;;5028464;28;20714;-68
2021/01/13 06:59:24;;;;;;;28.30;16.35;;;;;;;;;;5028189;28;20197;-64
2021/01/13 07:01:50;;;;;;;28.85;16.70;;;;;;;;;;5028759;28;20225;-67
2021/01/13 07:04:17;;;;;;;31.52;16.77;;;;;;;;;;5028288;28;20181;-65
2021/01/13 07:07:02;;;;;;;26.42;15.18;;;;;;;;;;5029207;28;20287;-70
2021/01/13 07:09:36;;;;;;;29.45;15.93;;;;;;;;;;5030281;28;20205;-64
2021/01/13 07:12:06;;;;;;;25.75;14.43;;;;;;;;;;5032890;28;20211;-66
2021/01/13 07:14:35;;;;;;;27.50;15.40;;;;;;;;;;5034867;28;20284;-67
2021/01/13 07:17:04;;;;;;;28.33;15.48;;;;;;;;;;5033350;28;20205;-67
2021/01/13 07:19:31;;;;;;;25.85;15.68;;;;;;;;;;5033768;28;20204;-66
2021/01/13 07:21:58;;;;;;;28.33;16.27;;;;;;;;;;5033810;28;20197;-67
2021/01/13 07:24:26;;;;;;;29.10;17.35;;;;;;;;;;5032083;28;20672;-70
2021/01/13 07:26:53;;;;;;;32.38;15.88;;;;;;;;;;5030635;28;20200;-65
2021/01/13 07:29:20;;;;;;;26.13;13.88;;;;;;;;;;5029975;28;20916;-66
2021/01/13 07:31:46;;;;;;;23.88;13.10;;;;;;;;;;5030446;28;20376;-68
2021/01/13 07:34:25;;;;;;;22.98;13.45;;;;;;;;;;5029536;28;20258;-69
2021/01/13 07:36:57;;;;;;;24.08;12.63;;;;;;;;;;5030017;28;20314;-66
2021/01/13 07:39:25;;;;;;;26.05;14.18;;;;;;;;;;5029315;28;20192;-66
2021/01/13 07:42:09;;;;;;;25.08;12.30;;;;;;;;;;5030218;28;20189;-67
2021/01/13 07:44:39;;;;;;;23.90;13.38;;;;;;;;;;5029482;28;20675;-66
2021/01/13 07:47:24;;;;;;;20.80;11.82;;;;;;;;;;5030028;28;20279;-69
2021/01/13 07:50:03;;;;;;;22.23;12.75;;;;;;;;;;5029517;28;20593;-67
2021/01/13 07:52:35;;;;;;;21.15;11.77;;;;;;;;;;5028995;28;20208;-66
2021/01/13 07:55:02;;;;;;;21.92;12.55;;;;;;;;;;5029445;28;20299;-64
2021/01/13 07:57:33;;;;;;;23.40;13.25;;;;;;;;;;5030058;28;20189;-68
2021/01/13 07:59:59;;;;;;;21.33;11.95;;;;;;;;;;5029059;28;20213;-67
2021/01/13 08:02:28;;;;;;;23.02;12.73;;;;;;;;;;5030615;28;20242;-69
2021/01/13 08:05:00;;;;;;;23.17;12.70;;;;;;;;;;5029243;28;20208;-69
2021/01/13 08:07:37;;;;;;;23.25;12.55;;;;;;;;;;5029988;28;20181;-69
2021/01/13 08:10:05;;;;;;;24.58;12.75;;;;;;;;;;5029162;28;20220;-67
2021/01/13 08:12:50;;;;;;;23.58;13.82;;;;;;;;;;5029844;28;20193;-70
2021/01/13 08:15:42;;;;;;;25.35;14.15;;;;;;;;;;5029344;28;20217;-64
2021/01/13 08:18:21;;;;;;;23.70;13.35;;;;;;;;;;5029221;28;20233;-64
2021/01/13 08:20:55;;;;;;;22.08;12.20;;;;;;;;;;5029317;28;20193;-67
2021/01/13 08:23:27;;;;;;;25.80;13.77;;;;;;;;;;5030274;28;20287;-66
2021/01/13 08:25:54;;;;;;;23.05;14.13;;;;;;;;;;5028943;28;20563;-65
2021/01/13 08:28:21;;;;;;;26.77;14.57;;;;;;;;;;5029759;28;20625;-62
2021/01/13 08:30:48;;;;;;;23.90;13.95;;;;;;;;;;5029308;28;20212;-65
2021/01/13 08:33:23;;;;;;;26.88;14.88;;;;;;;;;;5030281;28;20227;-66
2021/01/13 08:35:57;;;;;;;26.95;15.43;;;;;;;;;;5029005;28;20278;-68
2021/01/13 08:38:24;;;;;;;27.27;14.98;;;;;;;;;;5029160;28;20286;-64
2021/01/13 08:40:50;;;;;;;28.02;15.45;;;;;;;;;;5028877;28;20332;-62
2021/01/13 08:43:18;;;;;;;25.65;15.00;;;;;;;;;;5029985;28;20298;-64
2021/01/13 08:45:48;;;;;;;27.23;15.45;;;;;;;;;;5035707;28;20204;-63
2021/01/13 08:48:21;;;;;;;28.60;15.35;;;;;;;;;;5029624;28;20271;-66
2021/01/13 08:51:21;;;;;;;29.52;16.55;;;;;;;;;;5028873;28;20204;-71
2021/01/13 08:53:47;;;;;;;27.98;15.50;;;;;;;;;;5027686;28;20695;-67
2021/01/13 08:56:13;;;;;;;27.67;15.07;;;;;;;;;;5029126;28;20240;-67
2021/01/13 08:58:53;;;;;;;26.50;14.55;;;;;;;;;;5029283;28;20189;-69
2021/01/13 09:01:35;;;;;;;24.08;13.48;;;;;;;;;;5029114;28;20200;-70
2021/01/13 09:04:05;;;;;;;24.42;14.20;;;;;;;;;;5031722;28;20681;-64
2021/01/13 09:06:31;;;;;;;27.00;14.93;;;;;;;;;;5033219;28;20197;-70
2021/01/13 09:08:58;;;;;;;25.83;14.02;;;;;;;;;;5032767;28;20208;-65
2021/01/13 09:11:31;;;;;;;29.55;14.57;;;;;;;;;;5032383;28;20205;-65
2021/01/13 09:14:18;;;;;;;27.27;13.40;;;;;;;;;;5032667;28;20188;-67
2021/01/13 09:16:54;;;;;;;27.40;14.27;;;;;;;;;;5033022;28;20683;-66
2021/01/13 09:19:31;;;;;;;27.15;14.02;;;;;;;;;;5032318;28;20193;-67
2021/01/13 09:21:58;;;;;;;25.83;14.32;;;;;;;;;;5032749;28;20283;-62
2021/01/13 09:24:25;;;;;;;25.05;13.27;;;;;;;;;;5031944;28;20668;-69
2021/01/13 09:26:53;;;;;;;25.63;14.82;;;;;;;;;;5032425;28;20201;-71
2021/01/13 09:29:20;;;;;;;26.80;14.88;;;;;;;;;;5031988;28;20905;-61
2021/01/13 09:32:05;;;;;;;28.55;14.95;;;;;;;;;;5032020;28;20212;-69
2021/01/13 09:34:31;;;;;;;24.45;13.88;;;;;;;;;;5031914;28;20208;-70
2021/01/13 09:36:58;;;;;;;24.23;13.73;;;;;;;;;;5031998;28;20221;-68
2021/01/13 09:39:32;;;;;;;26.33;14.88;;;;;;;;;;5031678;28;20193;-66
2021/01/13 09:41:59;;;;;;;24.90;14.10;;;;;;;;;;5032672;28;20201;-69
2021/01/13 09:44:28;;;;;;;23.60;12.55;;;;;;;;;;5031506;28;20998;-67
2021/01/13 09:46:54;;;;;;;28.75;14.80;;;;;;;;;;5032090;28;20286;-71
2021/01/13 09:49:22;;;;;;;23.30;12.38;;;;;;;;;;5031911;28;20186;-67
2021/01/13 09:51:48;;;;;;;22.83;12.02;;;;;;;;;;5032149;28;20193;-66
2021/01/13 09:54:20;;;;;;;19.80;10.93;;;;;;;;;;5031515;28;20197;-69
2021/01/13 09:56:55;;;;;;;24.92;13.15;;;;;;;;;;5031723;28;20227;-67
2021/01/13 09:59:23;;;;;;;29.33;14.45;;;;;;;;;;5031400;28;20209;-68
2021/01/13 10:01:54;;;;;;;25.65;14.45;;;;;;;;;;5031560;28;20201;-65
2021/01/13 10:04:20;;;;;;;26.05;15.10;;;;;;;;;;5031467;28;20209;-69
2021/01/13 10:06:51;;;;;;;24.10;13.45;;;;;;;;;;5031932;28;20205;-69
2021/01/13 10:09:19;;;;;;;25.25;13.65;;;;;;;;;;5031231;28;20229;-63
2021/01/13 10:11:52;;;;;;;26.50;15.45;;;;;;;;;;5031783;28;20212;-72
2021/01/13 10:14:19;;;;;;;26.33;15.35;;;;;;;;;;5032984;28;20646;-62
2021/01/13 10:16:46;;;;;;;26.25;14.52;;;;;;;;;;5037606;28;20286;-64
2021/01/13 10:19:13;;;;;;;28.67;15.50;;;;;;;;;;5031390;28;20197;-62
2021/01/13 10:21:40;;;;;;;31.00;16.10;;;;;;;;;;5031668;28;20201;-64
2021/01/13 10:24:07;;;;;;;28.65;16.60;;;;;;;;;;5031411;28;20667;-64
2021/01/13 10:26:38;;;;;;;26.42;14.88;;;;;;;;;;5031723;28;20208;-69
2021/01/13 10:29:05;;;;;;;32.63;17.52;;;;;;;;;;5031061;28;20224;-70
2021/01/13 10:31:32;;;;;;;31.35;16.45;;;;;;;;;;5031268;28;20236;-69
2021/01/13 10:33:59;;;;;;;30.58;18.20;;;;;;;;;;5031396;28;20201;-68
2021/01/13 10:36:32;;;;;;;25.98;15.60;;;;;;;;;;5030443;28;20245;-69
2021/01/13 10:38:59;;;;;;;30.40;17.05;;;;;;;;;;5032175;28;20291;-69
2021/01/13 10:41:39;;;;;;;27.15;14.82;;;;;;;;;;5031970;28;20671;-70
2021/01/13 10:44:07;;;;;;;28.15;15.93;;;;;;;;;;5030463;28;20190;-70
2021/01/13 10:46:40;;;;;;;27.25;15.73;;;;;;;;;;5031105;28;20180;-64
2021/01/13 10:49:09;;;;;;;33.88;18.48;;;;;;;;;;5030545;28;20216;-67
2021/01/13 10:51:37;;;;;;;30.33;15.88;;;;;;;;;;5030871;28;20213;-63
2021/01/13 10:54:08;;;;;;;26.55;15.60;;;;;;;;;;5030619;28;20284;-68
2021/01/13 10:56:38;;;;;;;28.85;16.60;;;;;;;;;;5030635;28;20761;-68
2021/01/13 10:59:10;;;;;;;29.88;17.15;;;;;;;;;;5030426;28;20229;-69
2021/01/13 11:01:38;;;;;;;28.25;16.52;;;;;;;;;;5030496;28;20618;-69
2021/01/13 11:04:04;;;;;;;29.20;16.45;;;;;;;;;;5030397;28;20675;-64
2021/01/13 11:06:31;;;;;;;31.30;17.02;;;;;;;;;;5030595;28;20193;-66
2021/01/13 11:08:59;;;;;;;29.33;16.60;;;;;;;;;;5031053;28;20205;-66
2021/01/13 11:11:25;;;;;;;35.17;17.45;;;;;;;;;;5030288;28;20674;-70
2021/01/13 11:13:54;;;;;;;33.72;17.20;;;;;;;;;;5031054;28;20204;-71
2021/01/13 11:16:20;;;;;;;28.95;15.98;;;;;;;;;;5030022;28;20327;-69
2021/01/13 11:18:48;;;;;;;31.13;17.02;;;;;;;;;;5030429;28;20211;-65
2021/01/13 11:21:15;;;;;;;31.00;17.73;;;;;;;;;;5029736;28;20203;-69
2021/01/13 11:23:42;;;;;;;32.60;18.52;;;;;;;;;;5030538;28;20288;-66
2021/01/13 11:26:09;;;;;;;35.97;18.20;;;;;;;;;;5029276;28;20577;-65
2021/01/13 11:28:37;;;;;;;28.30;16.27;;;;;;;;;;5030272;28;20201;-69
2021/01/13 11:31:04;;;;;;;28.95;16.73;;;;;;;;;;5030269;28;20204;-70
2021/01/13 11:33:31;;;;;;;30.77;17.35;;;;;;;;;;5030000;28;20278;-67
2021/01/13 11:35:58;;;;;;;28.92;15.95;;;;;;;;;;5030014;28;20243;-68
2021/01/13 11:38:41;;;;;;;32.95;17.70;;;;;;;;;;5031391;28;20276;-67
2021/01/13 11:41:08;;;;;;;28.17;15.80;;;;;;;;;;5031665;28;20299;-67
2021/01/13 11:43:43;;;;;;;29.58;16.05;;;;;;;;;;5031038;28;20567;-69
2021/01/13 11:46:16;;;;;;;30.60;15.85;;;;;;;;;;5035510;28;20232;-60
2021/01/13 11:48:47;;;;;;;29.02;16.33;;;;;;;;;;5032407;28;20228;-65
2021/01/13 11:51:16;;;;;;;29.92;16.05;;;;;;;;;;5029942;28;20206;-69
2021/01/13 11:53:44;;;;;;;32.92;17.67;;;;;;;;;;5030232;28;20204;-68
2021/01/13 11:56:11;;;;;;;31.00;16.83;;;;;;;;;;5029446;28;20315;-68
2021/01/13 11:58:47;;;;;;;33.53;17.52;;;;;;;;;;5029675;28;20205;-68
2021/01/13 12:01:13;;;;;;;29.52;16.60;;;;;;;;;;5029419;28;20284;-64
2021/01/13 12:03:40;;;;;;;32.10;17.52;;;;;;;;;;5029890;28;20192;-69
2021/01/13 12:06:07;;;;;;;32.70;17.77;;;;;;;;;;5029259;28;20281;-66
2021/01/13 12:08:33;;;;;;;31.85;18.10;;;;;;;;;;5029779;28;20596;-68
2021/01/13 12:11:10;;;;;;;29.95;15.57;;;;;;;;;;5029348;28;20197;-65
2021/01/13 12:13:42;;;;;;;32.15;16.75;;;;;;;;;;5029719;28;20185;-65
2021/01/13 12:16:13;;;;;;;30.25;16.98;;;;;;;;;;5029162;28;21033;-64
2021/01/13 12:18:44;;;;;;;30.77;17.80;;;;;;;;;;5029783;28;20312;-64
2021/01/13 12:21:14;;;;;;;29.92;17.15;;;;;;;;;;5029075;28;20296;-68
2021/01/13 12:23:41;;;;;;;27.95;15.95;;;;;;;;;;5029821;28;20209;-67
2021/01/13 12:26:17;;;;;;;30.45;17.40;;;;;;;;;;5028742;28;20197;-69
2021/01/13 12:28:46;;;;;;;28.92;15.45;;;;;;;;;;5029710;28;20205;-66
2021/01/13 12:31:13;;;;;;;31.67;16.83;;;;;;;;;;5029374;28;20639;-64
2021/01/13 12:33:47;;;;;;;30.30;15.93;;;;;;;;;;5029470;28;20644;-68
2021/01/13 12:36:14;;;;;;;30.20;17.15;;;;;;;;;;5028638;28;20236;-67
2021/01/13 12:38:43;;;;;;;31.00;17.60;;;;;;;;;;5031868;28;20195;-67
2021/01/13 12:41:09;;;;;;;27.45;16.27;;;;;;;;;;5033041;28;20227;-66
2021/01/13 12:43:36;;;;;;;29.20;16.27;;;;;;;;;;5033574;28;20197;-64
2021/01/13 12:46:03;;;;;;;29.35;17.30;;;;;;;;;;5032905;28;20228;-67
2021/01/13 12:48:29;;;;;;;29.13;16.67;;;;;;;;;;5033259;28;20205;-68
2021/01/13 12:50:55;;;;;;;30.23;17.45;;;;;;;;;;5032567;28;20215;-69
2021/01/13 12:53:22;;;;;;;27.30;16.33;;;;;;;;;;5032881;28;20228;-68
2021/01/13 12:55:48;;;;;;;32.63;16.55;;;;;;;;;;5032403;28;20220;-69
2021/01/13 12:58:15;;;;;;;26.35;16.52;;;;;;;;;;5033416;28;20201;-67
2021/01/13 13:00:41;;;;;;;27.27;16.33;;;;;;;;;;5032415;28;20197;-66
2021/01/13 13:03:07;;;;;;;28.67;17.15;;;;;;;;;;5032965;28;20203;-70
2021/01/13 13:05:33;;;;;;;26.70;16.25;;;;;;;;;;5032547;28;20201;-71
2021/01/13 13:07:59;;;;;;;25.83;15.45;;;;;;;;;;5033020;28;20194;-66
2021/01/13 13:10:26;;;;;;;24.13;15.07;;;;;;;;;;5032106;28;20671;-68
2021/01/13 13:12:52;;;;;;;25.73;15.85;;;;;;;;;;5032697;28;20706;-65
2021/01/13 13:15:19;;;;;;;28.10;16.60;;;;;;;;;;5032503;28;20235;-64
2021/01/13 13:17:45;;;;;;;27.65;16.40;;;;;;;;;;5041423;28;20200;-67
2021/01/13 13:20:11;;;;;;;30.20;17.75;;;;;;;;;;5032652;28;20193;-65
2021/01/13 13:22:37;;;;;;;29.67;17.10;;;;;;;;;;5032482;28;20203;-67
2021/01/13 13:25:04;;;;;;;31.95;18.30;;;;;;;;;;5032170;28;20668;-65
2021/01/13 13:27:34;;;;;;;32.58;18.65;;;;;;;;;;5032571;28;20197;-67
2021/01/13 13:30:01;;;;;;;29.88;17.48;;;;;;;;;;5031758;28;20209;-67
2021/01/13 13:32:30;;;;;;;29.98;17.50;;;;;;;;;;5032373;28;20185;-69
2021/01/13 13:34:56;;;;;;;27.35;16.90;;;;;;;;;;5031802;28;20229;-69
2021/01/13 13:37:23;;;;;;;24.05;12.80;;;;;;;;;;5032490;28;20675;-63
2021/01/13 13:39:49;;;;;;;25.65;15.63;;;;;;;;;;5031859;28;20296;-69
2021/01/13 13:42:23;;;;;;;25.77;14.05;;;;;;;;;;5032326;28;20326;-66
2021/01/13 13:44:49;;;;;;;29.15;16.50;;;;;;;;;;5031779;28;20201;-69
2021/01/13 13:47:16;;;;;;;30.00;15.60;;;;;;;;;;5032571;28;20205;-64
2021/01/13 13:49:42;;;;;;;23.63;11.85;;;;;;;;;;5030913;28;20323;-67
2021/01/13 13:52:09;;;;;;;23.02;12.18;;;;;;;;;;5032279;28;20247;-68
2021/01/13 13:54:55;;;;;;;27.88;16.33;;;;;;;;;;5031790;28;20242;-67
2021/01/13 13:57:22;;;;;;;28.83;16.70;;;;;;;;;;5032027;28;20247;-69
2021/01/13 13:59:48;;;;;;;29.48;16.98;;;;;;;;;;5031510;28;20743;-70
2021/01/13 14:02:15;;;;;;;34.97;17.27;;;;;;;;;;5032247;28;20215;-65
2021/01/13 14:04:41;;;;;;;30.45;16.73;;;;;;;;;;5031370;28;20263;-68
2021/01/13 14:07:07;;;;;;;34.35;17.27;;;;;;;;;;5031782;28;20216;-67
2021/01/13 14:09:34;;;;;;;29.92;16.63;;;;;;;;;;5031548;28;20201;-69
2021/01/13 14:12:00;;;;;;;29.88;17.27;;;;;;;;;;5032025;28;20281;-67
2021/01/13 14:14:31;;;;;;;27.67;16.08;;;;;;;;;;5031131;28;20247;-68
2021/01/13 14:16:57;;;;;;;29.40;15.13;;;;;;;;;;5031872;28;20221;-72
2021/01/13 14:19:24;;;;;;;29.70;17.05;;;;;;;;;;5031247;28;20195;-69
2021/01/13 14:21:52;;;;;;;29.13;17.30;;;;;;;;;;5031809;28;20192;-67
2021/01/13 14:24:18;;;;;;;33.28;17.98;;;;;;;;;;5029571;28;20282;-71
2021/01/13 14:26:45;;;;;;;29.45;16.58;;;;;;;;;;5030023;28;20601;-65
2021/01/13 14:29:11;;;;;;;31.50;17.83;;;;;;;;;;5031541;28;20170;-67
2021/01/13 14:31:38;;;;;;;28.30;15.48;;;;;;;;;;5032238;28;20295;-67